Maersk Nimes — VRFO7 — position and weather

sailwx.info

Track history (hours):
 
Tides and Currents Weather Stations Pressure Air Temp Water Temp Dewpoint Dewpoint Depression Visibility Wind Speed Wind Dir Waves Ship Positions

Maersk Nimes

Last reported at 2017-Apr-19 17:36 UTC. Time now 2017-Apr-24 23:11 UTC.
Position N 09°11' W 079°52'.

Length 210 m; draft 9.9 m.

Type: Cargo ship. MMSI: 477559200.

Date/timePositionNaut miles runAvg speedWind from/ knotsBaromVisibWave heightAir tempDewpointWater temp
2017-Apr-19 17:36N 09°11' W 079°52'1 9.3
2017-Apr-19 17:28N 09°11' W 079°53'3 7.4
2017-Apr-19 17:00N 09°14' W 079°56'1 1.2
2017-Apr-19 16:30N 09°14' W 079°56'0 0.4
2017-Apr-19 15:59N 09°14' W 079°55'2 3.8
2017-Apr-19 15:30N 09°16' W 079°55'0 0.5
2017-Apr-19 15:00N 09°16' W 079°55'0 0.7
2017-Apr-19 14:30N 09°17' W 079°55'0 0.5
2017-Apr-19 13:30N 09°17' W 079°55'3 6.1
2017-Apr-19 13:00N 09°20' W 079°55'3 5.7
2017-Apr-19 12:30N 09°23' W 079°55'3 6.5
2017-Apr-19 12:00N 09°26' W 079°54'2 4.1
2017-Apr-19 11:29N 09°26' W 079°52'0 0.2
2017-Apr-19 10:56N 09°26' W 079°52'0 0.1
2017-Apr-19 10:30N 09°26' W 079°52'0 0.2
2017-Apr-19 09:56N 09°26' W 079°52'0 0.1
2017-Apr-19 09:30N 09°26' W 079°52'0 0.4
2017-Apr-19 08:58N 09°26' W 079°52'0 0.1
2017-Apr-19 08:28N 09°26' W 079°52'0 0.0
2017-Apr-19 07:58N 09°26' W 079°52'0 0.0
2017-Apr-19 07:28N 09°26' W 079°52'0 0.0
2017-Apr-19 07:00N 09°26' W 079°52'0 0.0
2017-Apr-19 06:22N 09°26' W 079°52'0 0.0
2017-Apr-19 05:58N 09°26' W 079°52'0 0.0
2017-Apr-19 05:25N 09°26' W 079°52'0 0.0
2017-Apr-19 04:58N 09°26' W 079°52'0 0.0
2017-Apr-19 04:28N 09°26' W 079°52'0 0.0
2017-Apr-19 03:56N 09°26' W 079°52'0 0.0
2017-Apr-19 03:29N 09°26' W 079°52'0 0.0
2017-Apr-19 02:59N 09°26' W 079°52'0 0.0
2017-Apr-19 02:29N 09°26' W 079°52'0 0.0
2017-Apr-19 01:58N 09°26' W 079°52'0 0.1
2017-Apr-19 01:30N 09°26' W 079°52'1 2.0
2017-Apr-19 01:01N 09°26' W 079°52'3 7.0
2017-Apr-19 00:31N 09°22' W 079°54'1 1.5
2017-Apr-18 23:59N 09°22' W 079°53'0 0.0
2017-Apr-18 23:30N 09°22' W 079°53'0 0.0
2017-Apr-18 23:01N 09°22' W 079°53'0 0.0
2017-Apr-18 22:30N 09°22' W 079°53'0 0.0
2017-Apr-18 22:00N 09°22' W 079°53'0 0.0
2017-Apr-18 21:30N 09°22' W 079°53'0 0.0
2017-Apr-18 20:58N 09°22' W 079°53'0 0.0
2017-Apr-18 20:28N 09°22' W 079°53'0 0.0
2017-Apr-18 20:01N 09°22' W 079°53'0 0.0
2017-Apr-18 19:30N 09°22' W 079°53'0 0.0
2017-Apr-18 19:00N 09°22' W 079°53'0 0.0
2017-Apr-18 18:30N 09°22' W 079°53'0 0.0
2017-Apr-18 18:00N 09°22' W 079°53'0 0.0
2017-Apr-18 17:30N 09°22' W 079°53'0 0.0
2017-Apr-18 17:00N 09°22' W 079°53'0 0.0
2017-Apr-18 16:29N 09°22' W 079°53'0 0.0
2017-Apr-18 15:59N 09°22' W 079°53'0 0.0
2017-Apr-18 15:26N 09°22' W 079°53'0 0.0
2017-Apr-18 15:01N 09°22' W 079°53'0 0.0
2017-Apr-18 14:28N 09°22' W 079°53'0 0.0
2017-Apr-18 13:31N 09°22' W 079°53'0 0.0
2017-Apr-18 12:58N 09°22' W 079°53'0 0.1
2017-Apr-18 12:30N 09°22' W 079°53'1 2.1
2017-Apr-18 12:00N 09°23' W 079°54'4 7.1
2017-Apr-18 11:30N 09°26' W 079°54'2 3.4
2017-Apr-18 11:00N 09°28' W 079°53'0 0.2
2017-Apr-18 10:31N 09°28' W 079°53'0 0.5
2017-Apr-18 10:00N 09°28' W 079°54'3 5.3
2017-Apr-18 09:30N 09°30' W 079°53'812.4
2017-Apr-18 08:51N 09°38' W 079°51'305 7.9
2017-Apr-16 18:00N 11°24' W 075°00'28515.8 080 / 151011.0 5.4 30.025.8
2017-Apr-16 00:00N 14°42' W 071°30'8113.5 050 / 61012.0 5.4 29.021.630.0
2017-Apr-15 18:00N 15°24' W 070°18'14423.9 050 / 141016.0 5.4 26.021.5
2017-Apr-15 12:00N 17°30' W 069°06'43614.5 050 / 131014.010.8 25.018.8
2017-Apr-14 06:00N 22°48' W 063°48'8514.2 180 / 81014.010.8 24.019.4
2017-Apr-14 00:00N 23°48' W 062°42'37715.7 140 / 151014.0 5.4 24.021.0
2017-Apr-13 00:00N 28°12' W 057°42'19316.1 070 / 141021.0 5.4 22.015.3
2017-Apr-12 12:00N 30°24' W 055°00'18715.6 050 / 141023.0 5.4 20.013.0
2017-Apr-12 00:00N 32°24' W 052°12'19216.0 020 / 131024.0 5.4 18.010.6
2017-Apr-11 12:00N 34°30' W 049°18'9115.2 310 / 161021.0 5.4 18.012.721.0
2017-Apr-11 06:00N 35°24' W 047°48'8714.5 190 / 221021.0 5.4 19.015.621.0
2017-Apr-11 00:00N 36°18' W 046°24'18315.3 140 / 151025.0 5.4 18.014.6
2017-Apr-10 12:00N 38°06' W 043°18'9215.4 120 / 121030.0 5.4 16.0 8.1
2017-Apr-10 06:00N 39°00' W 041°42'9215.4 140 / 61030.0 5.4 17.0 9.419.0
2017-Apr-10 00:00N 39°48' W 040°00'9215.3 120 / 61031.0 5.4 16.0 8.118.0
2017-Apr-09 18:00N 40°36' W 038°18'   110 / 61032.0 5.4 18.010.620.0
Track history (hours):
 
Tides and Currents Weather Stations Pressure Air Temp Water Temp Dewpoint Dewpoint Depression Visibility Wind Speed Wind Dir Waves Ship Positions

Maersk Nimes

Last reported at 2017-Apr-19 17:36 UTC. Time now 2017-Apr-24 23:11 UTC.
Position N 09°11' W 079°52'.

Length 210 m; draft 9.9 m.

Type: Cargo ship. MMSI: 477559200.

Date/timePositionNaut miles runAvg speedWind from/ knotsBaromVisibWave heightAir tempDewpointWater temp
2017-Apr-19 17:36N 09°11' W 079°52'1 9.3
2017-Apr-19 17:28N 09°11' W 079°53'3 7.4
2017-Apr-19 17:00N 09°14' W 079°56'1 1.2
2017-Apr-19 16:30N 09°14' W 079°56'0 0.4
2017-Apr-19 15:59N 09°14' W 079°55'2 3.8
2017-Apr-19 15:30N 09°16' W 079°55'0 0.5
2017-Apr-19 15:00N 09°16' W 079°55'0 0.7
2017-Apr-19 14:30N 09°17' W 079°55'0 0.5
2017-Apr-19 13:30N 09°17' W 079°55'3 6.1
2017-Apr-19 13:00N 09°20' W 079°55'3 5.7
2017-Apr-19 12:30N 09°23' W 079°55'3 6.5
2017-Apr-19 12:00N 09°26' W 079°54'2 4.1
2017-Apr-19 11:29N 09°26' W 079°52'0 0.2
2017-Apr-19 10:56N 09°26' W 079°52'0 0.1
2017-Apr-19 10:30N 09°26' W 079°52'0 0.2
2017-Apr-19 09:56N 09°26' W 079°52'0 0.1
2017-Apr-19 09:30N 09°26' W 079°52'0 0.4
2017-Apr-19 08:58N 09°26' W 079°52'0 0.1
2017-Apr-19 08:28N 09°26' W 079°52'0 0.0
2017-Apr-19 07:58N 09°26' W 079°52'0 0.0
2017-Apr-19 07:28N 09°26' W 079°52'0 0.0
2017-Apr-19 07:00N 09°26' W 079°52'0 0.0
2017-Apr-19 06:22N 09°26' W 079°52'0 0.0
2017-Apr-19 05:58N 09°26' W 079°52'0 0.0
2017-Apr-19 05:25N 09°26' W 079°52'0 0.0
2017-Apr-19 04:58N 09°26' W 079°52'0 0.0
2017-Apr-19 04:28N 09°26' W 079°52'0 0.0
2017-Apr-19 03:56N 09°26' W 079°52'0 0.0
2017-Apr-19 03:29N 09°26' W 079°52'0 0.0
2017-Apr-19 02:59N 09°26' W 079°52'0 0.0
2017-Apr-19 02:29N 09°26' W 079°52'0 0.0
2017-Apr-19 01:58N 09°26' W 079°52'0 0.1
2017-Apr-19 01:30N 09°26' W 079°52'1 2.0
2017-Apr-19 01:01N 09°26' W 079°52'3 7.0
2017-Apr-19 00:31N 09°22' W 079°54'1 1.5
2017-Apr-18 23:59N 09°22' W 079°53'0 0.0
2017-Apr-18 23:30N 09°22' W 079°53'0 0.0
2017-Apr-18 23:01N 09°22' W 079°53'0 0.0
2017-Apr-18 22:30N 09°22' W 079°53'0 0.0
2017-Apr-18 22:00N 09°22' W 079°53'0 0.0
2017-Apr-18 21:30N 09°22' W 079°53'0 0.0
2017-Apr-18 20:58N 09°22' W 079°53'0 0.0
2017-Apr-18 20:28N 09°22' W 079°53'0 0.0
2017-Apr-18 20:01N 09°22' W 079°53'0 0.0
2017-Apr-18 19:30N 09°22' W 079°53'0 0.0
2017-Apr-18 19:00N 09°22' W 079°53'0 0.0
2017-Apr-18 18:30N 09°22' W 079°53'0 0.0
2017-Apr-18 18:00N 09°22' W 079°53'0 0.0
2017-Apr-18 17:30N 09°22' W 079°53'0 0.0
2017-Apr-18 17:00N 09°22' W 079°53'0 0.0
2017-Apr-18 16:29N 09°22' W 079°53'0 0.0
2017-Apr-18 15:59N 09°22' W 079°53'0 0.0
2017-Apr-18 15:26N 09°22' W 079°53'0 0.0
2017-Apr-18 15:01N 09°22' W 079°53'0 0.0
2017-Apr-18 14:28N 09°22' W 079°53'0 0.0
2017-Apr-18 13:31N 09°22' W 079°53'0 0.0
2017-Apr-18 12:58N 09°22' W 079°53'0 0.1
2017-Apr-18 12:30N 09°22' W 079°53'1 2.1
2017-Apr-18 12:00N 09°23' W 079°54'4 7.1
2017-Apr-18 11:30N 09°26' W 079°54'2 3.4
2017-Apr-18 11:00N 09°28' W 079°53'0 0.2
2017-Apr-18 10:31N 09°28' W 079°53'0 0.5
2017-Apr-18 10:00N 09°28' W 079°54'3 5.3
2017-Apr-18 09:30N 09°30' W 079°53'812.4
2017-Apr-18 08:51N 09°38' W 079°51'305 7.9
2017-Apr-16 18:00N 11°24' W 075°00'28515.8 080 / 151011.0 5.4 30.025.8
2017-Apr-16 00:00N 14°42' W 071°30'8113.5 050 / 61012.0 5.4 29.021.630.0
2017-Apr-15 18:00N 15°24' W 070°18'14423.9 050 / 141016.0 5.4 26.021.5
2017-Apr-15 12:00N 17°30' W 069°06'43614.5 050 / 131014.010.8 25.018.8
2017-Apr-14 06:00N 22°48' W 063°48'8514.2 180 / 81014.010.8 24.019.4
2017-Apr-14 00:00N 23°48' W 062°42'37715.7 140 / 151014.0 5.4 24.021.0
2017-Apr-13 00:00N 28°12' W 057°42'19316.1 070 / 141021.0 5.4 22.015.3
2017-Apr-12 12:00N 30°24' W 055°00'18715.6 050 / 141023.0 5.4 20.013.0
2017-Apr-12 00:00N 32°24' W 052°12'19216.0 020 / 131024.0 5.4 18.010.6
2017-Apr-11 12:00N 34°30' W 049°18'9115.2 310 / 161021.0 5.4 18.012.721.0
2017-Apr-11 06:00N 35°24' W 047°48'8714.5 190 / 221021.0 5.4 19.015.621.0
2017-Apr-11 00:00N 36°18' W 046°24'18315.3 140 / 151025.0 5.4 18.014.6
2017-Apr-10 12:00N 38°06' W 043°18'9215.4 120 / 121030.0 5.4 16.0 8.1
2017-Apr-10 06:00N 39°00' W 041°42'9215.4 140 / 61030.0 5.4 17.0 9.419.0
2017-Apr-10 00:00N 39°48' W 040°00'9215.3 120 / 61031.0 5.4 16.0 8.118.0
2017-Apr-09 18:00N 40°36' W 038°18'   110 / 61032.0 5.4 18.010.620.0

Dump ship's entire track history